sensor_id;sensor_type;location;lat;lon;timestamp;P1;durP1;ratioP1;P2;durP2;ratioP2
37051;SDS011;22964;52.272;13.356;2023-02-27T00:00:53;4.15;;;2.35;;
37051;SDS011;22964;52.272;13.356;2023-02-27T00:03:19;4.57;;;2.33;;
37051;SDS011;22964;52.272;13.356;2023-02-27T00:05:45;5.57;;;2.40;;
37051;SDS011;22964;52.272;13.356;2023-02-27T00:08:11;4.03;;;2.28;;
37051;SDS011;22964;52.272;13.356;2023-02-27T00:10:37;3.97;;;2.22;;
37051;SDS011;22964;52.272;13.356;2023-02-27T00:13:02;3.85;;;2.00;;
37051;SDS011;22964;52.272;13.356;2023-02-27T00:15:28;4.90;;;2.03;;
37051;SDS011;22964;52.272;13.356;2023-02-27T00:17:56;5.75;;;2.40;;
37051;SDS011;22964;52.272;13.356;2023-02-27T00:20:22;4.93;;;2.20;;
37051;SDS011;22964;52.272;13.356;2023-02-27T00:22:48;6.18;;;2.00;;
37051;SDS011;22964;52.272;13.356;2023-02-27T00:25:14;6.15;;;2.20;;
37051;SDS011;22964;52.272;13.356;2023-02-27T00:27:40;4.38;;;2.10;;
37051;SDS011;22964;52.272;13.356;2023-02-27T00:30:08;2.97;;;1.92;;
37051;SDS011;22964;52.272;13.356;2023-02-27T00:32:35;3.88;;;1.80;;
37051;SDS011;22964;52.272;13.356;2023-02-27T00:35:05;3.75;;;1.95;;
37051;SDS011;22964;52.272;13.356;2023-02-27T00:37:32;4.45;;;1.75;;
37051;SDS011;22964;52.272;13.356;2023-02-27T00:39:59;3.95;;;1.70;;
37051;SDS011;22964;52.272;13.356;2023-02-27T00:42:25;3.90;;;1.88;;
37051;SDS011;22964;52.272;13.356;2023-02-27T00:44:52;3.20;;;1.85;;
37051;SDS011;22964;52.272;13.356;2023-02-27T00:47:18;3.88;;;1.73;;
37051;SDS011;22964;52.272;13.356;2023-02-27T00:49:44;3.33;;;1.70;;
37051;SDS011;22964;52.272;13.356;2023-02-27T00:52:10;3.72;;;1.70;;
37051;SDS011;22964;52.272;13.356;2023-02-27T00:54:36;3.10;;;1.63;;
37051;SDS011;22964;52.272;13.356;2023-02-27T00:57:02;3.15;;;1.60;;
37051;SDS011;22964;52.272;13.356;2023-02-27T00:59:27;4.10;;;1.77;;
37051;SDS011;22964;52.272;13.356;2023-02-27T01:01:53;4.07;;;1.98;;
37051;SDS011;22964;52.272;13.356;2023-02-27T01:04:19;4.75;;;2.10;;
37051;SDS011;22964;52.272;13.356;2023-02-27T01:06:45;4.75;;;2.20;;
37051;SDS011;22964;52.272;13.356;2023-02-27T01:09:11;4.75;;;2.10;;
37051;SDS011;22964;52.272;13.356;2023-02-27T01:11:37;5.65;;;2.08;;
37051;SDS011;22964;52.272;13.356;2023-02-27T01:14:03;3.78;;;1.90;;
37051;SDS011;22964;52.272;13.356;2023-02-27T01:16:29;4.00;;;1.80;;
37051;SDS011;22964;52.272;13.356;2023-02-27T01:18:55;3.20;;;1.90;;
37051;SDS011;22964;52.272;13.356;2023-02-27T01:21:21;3.95;;;2.00;;
37051;SDS011;22964;52.272;13.356;2023-02-27T01:23:47;3.58;;;1.88;;
37051;SDS011;22964;52.272;13.356;2023-02-27T01:26:13;4.65;;;1.85;;
37051;SDS011;22964;52.272;13.356;2023-02-27T01:28:38;3.72;;;1.90;;
37051;SDS011;22964;52.272;13.356;2023-02-27T01:31:04;3.35;;;1.67;;
37051;SDS011;22964;52.272;13.356;2023-02-27T01:33:30;3.38;;;1.50;;
37051;SDS011;22964;52.272;13.356;2023-02-27T01:35:58;4.88;;;2.10;;
37051;SDS011;22964;52.272;13.356;2023-02-27T01:38:24;3.78;;;1.85;;
37051;SDS011;22964;52.272;13.356;2023-02-27T01:40:51;2.92;;;1.60;;
37051;SDS011;22964;52.272;13.356;2023-02-27T01:43:17;2.80;;;1.70;;
37051;SDS011;22964;52.272;13.356;2023-02-27T01:45:44;3.42;;;1.52;;
37051;SDS011;22964;52.272;13.356;2023-02-27T01:48:20;3.47;;;1.45;;
37051;SDS011;22964;52.272;13.356;2023-02-27T01:50:52;3.08;;;1.67;;
37051;SDS011;22964;52.272;13.356;2023-02-27T01:53:25;3.53;;;1.70;;
37051;SDS011;22964;52.272;13.356;2023-02-27T01:55:56;4.72;;;1.70;;
37051;SDS011;22964;52.272;13.356;2023-02-27T01:58:26;2.30;;;1.45;;
37051;SDS011;22964;52.272;13.356;2023-02-27T02:00:52;3.38;;;1.60;;
37051;SDS011;22964;52.272;13.356;2023-02-27T02:05:57;3.72;;;1.50;;
37051;SDS011;22964;52.272;13.356;2023-02-27T02:08:26;4.53;;;1.77;;
37051;SDS011;22964;52.272;13.356;2023-02-27T02:10:54;3.05;;;1.63;;
37051;SDS011;22964;52.272;13.356;2023-02-27T02:13:22;3.08;;;1.33;;
37051;SDS011;22964;52.272;13.356;2023-02-27T02:15:51;2.75;;;1.50;;
37051;SDS011;22964;52.272;13.356;2023-02-27T02:18:46;2.70;;;1.48;;
37051;SDS011;22964;52.272;13.356;2023-02-27T02:24:25;2.88;;;1.60;;
37051;SDS011;22964;52.272;13.356;2023-02-27T02:27:24;3.90;;;1.90;;
37051;SDS011;22964;52.272;13.356;2023-02-27T02:41:21;4.72;;;1.80;;
37051;SDS011;22964;52.272;13.356;2023-02-27T02:49:29;4.00;;;1.65;;
37051;SDS011;22964;52.272;13.356;2023-02-27T02:52:10;4.28;;;1.92;;
37051;SDS011;22964;52.272;13.356;2023-02-27T02:54:39;6.78;;;2.08;;
37051;SDS011;22964;52.272;13.356;2023-02-27T02:57:41;5.57;;;2.20;;
37051;SDS011;22964;52.272;13.356;2023-02-27T03:00:14;5.65;;;2.22;;
37051;SDS011;22964;52.272;13.356;2023-02-27T03:02:44;6.93;;;2.50;;
37051;SDS011;22964;52.272;13.356;2023-02-27T03:05:28;4.10;;;1.85;;
37051;SDS011;22964;52.272;13.356;2023-02-27T03:07:59;5.45;;;2.17;;
37051;SDS011;22964;52.272;13.356;2023-02-27T03:10:37;4.65;;;1.90;;
37051;SDS011;22964;52.272;13.356;2023-02-27T03:13:12;3.90;;;1.88;;
37051;SDS011;22964;52.272;13.356;2023-02-27T03:15:57;4.75;;;1.98;;
37051;SDS011;22964;52.272;13.356;2023-02-27T03:18:25;4.40;;;2.08;;
37051;SDS011;22964;52.272;13.356;2023-02-27T03:21:13;4.80;;;2.22;;
37051;SDS011;22964;52.272;13.356;2023-02-27T03:23:44;5.15;;;2.17;;
37051;SDS011;22964;52.272;13.356;2023-02-27T03:26:16;5.28;;;2.00;;
37051;SDS011;22964;52.272;13.356;2023-02-27T03:29:09;3.85;;;1.90;;
37051;SDS011;22964;52.272;13.356;2023-02-27T03:34:16;7.03;;;2.75;;
37051;SDS011;22964;52.272;13.356;2023-02-27T03:36:51;6.35;;;2.90;;
37051;SDS011;22964;52.272;13.356;2023-02-27T03:40:03;6.57;;;2.25;;
37051;SDS011;22964;52.272;13.356;2023-02-27T03:42:28;6.88;;;2.60;;
37051;SDS011;22964;52.272;13.356;2023-02-27T03:45:31;7.72;;;2.90;;
37051;SDS011;22964;52.272;13.356;2023-02-27T03:48:04;7.68;;;2.80;;
37051;SDS011;22964;52.272;13.356;2023-02-27T03:50:32;7.57;;;2.75;;
37051;SDS011;22964;52.272;13.356;2023-02-27T03:53:02;5.57;;;2.40;;
37051;SDS011;22964;52.272;13.356;2023-02-27T03:55:32;7.75;;;2.80;;
37051;SDS011;22964;52.272;13.356;2023-02-27T03:58:00;4.05;;;2.10;;
37051;SDS011;22964;52.272;13.356;2023-02-27T04:00:26;4.60;;;2.17;;
37051;SDS011;22964;52.272;13.356;2023-02-27T04:02:53;4.45;;;1.98;;
37051;SDS011;22964;52.272;13.356;2023-02-27T04:05:24;17.35;;;9.77;;
37051;SDS011;22964;52.272;13.356;2023-02-27T04:21:31;14.77;;;6.78;;
37051;SDS011;22964;52.272;13.356;2023-02-27T04:26:53;8.63;;;3.72;;
37051;SDS011;22964;52.272;13.356;2023-02-27T04:29:37;6.43;;;3.38;;
37051;SDS011;22964;52.272;13.356;2023-02-27T04:32:52;8.48;;;3.50;;
37051;SDS011;22964;52.272;13.356;2023-02-27T04:34:55;5.90;;;3.13;;
37051;SDS011;22964;52.272;13.356;2023-02-27T04:37:47;8.48;;;2.83;;
37051;SDS011;22964;52.272;13.356;2023-02-27T04:40:19;5.07;;;2.25;;
37051;SDS011;22964;52.272;13.356;2023-02-27T04:42:51;5.97;;;2.60;;
37051;SDS011;22964;52.272;13.356;2023-02-27T04:45:20;4.28;;;2.35;;
37051;SDS011;22964;52.272;13.356;2023-02-27T04:47:50;3.53;;;2.00;;
37051;SDS011;22964;52.272;13.356;2023-02-27T04:50:22;3.95;;;1.92;;
37051;SDS011;22964;52.272;13.356;2023-02-27T04:52:52;5.18;;;2.70;;
37051;SDS011;22964;52.272;13.356;2023-02-27T04:55:26;11.35;;;4.80;;
37051;SDS011;22964;52.272;13.356;2023-02-27T04:58:06;39.90;;;11.38;;
37051;SDS011;22964;52.272;13.356;2023-02-27T05:00:40;15.93;;;5.30;;
37051;SDS011;22964;52.272;13.356;2023-02-27T05:03:15;9.65;;;4.68;;
37051;SDS011;22964;52.272;13.356;2023-02-27T05:05:45;6.13;;;2.80;;
37051;SDS011;22964;52.272;13.356;2023-02-27T05:08:19;4.20;;;2.30;;
37051;SDS011;22964;52.272;13.356;2023-02-27T05:10:57;4.63;;;2.30;;
37051;SDS011;22964;52.272;13.356;2023-02-27T05:13:39;4.88;;;2.03;;
37051;SDS011;22964;52.272;13.356;2023-02-27T05:18:42;3.33;;;1.80;;
37051;SDS011;22964;52.272;13.356;2023-02-27T05:21:15;3.97;;;2.00;;
37051;SDS011;22964;52.272;13.356;2023-02-27T05:29:16;3.53;;;1.85;;
37051;SDS011;22964;52.272;13.356;2023-02-27T05:32:03;4.10;;;1.80;;
37051;SDS011;22964;52.272;13.356;2023-02-27T05:34:50;4.30;;;2.20;;
37051;SDS011;22964;52.272;13.356;2023-02-27T05:37:24;6.10;;;3.40;;
37051;SDS011;22964;52.272;13.356;2023-02-27T05:39:58;5.13;;;3.10;;
37051;SDS011;22964;52.272;13.356;2023-02-27T05:42:37;4.53;;;2.75;;
37051;SDS011;22964;52.272;13.356;2023-02-27T05:45:08;4.43;;;2.40;;
37051;SDS011;22964;52.272;13.356;2023-02-27T05:47:51;5.18;;;2.60;;
37051;SDS011;22964;52.272;13.356;2023-02-27T05:50:27;4.47;;;2.40;;
37051;SDS011;22964;52.272;13.356;2023-02-27T05:52:56;3.65;;;2.00;;
37051;SDS011;22964;52.272;13.356;2023-02-27T05:55:26;3.83;;;1.90;;
37051;SDS011;22964;52.272;13.356;2023-02-27T05:58:06;5.18;;;2.03;;
37051;SDS011;22964;52.272;13.356;2023-02-27T06:00:53;3.53;;;1.80;;
37051;SDS011;22964;52.272;13.356;2023-02-27T06:03:23;3.42;;;1.63;;
37051;SDS011;22964;52.272;13.356;2023-02-27T06:05:50;3.47;;;1.92;;
37051;SDS011;22964;52.272;13.356;2023-02-27T06:08:17;3.17;;;1.65;;
37051;SDS011;22964;52.272;13.356;2023-02-27T06:10:44;4.32;;;2.10;;
37051;SDS011;22964;52.272;13.356;2023-02-27T06:13:10;6.65;;;2.80;;
37051;SDS011;22964;52.272;13.356;2023-02-27T06:15:36;7.50;;;2.80;;
37051;SDS011;22964;52.272;13.356;2023-02-27T06:18:02;7.85;;;2.58;;
37051;SDS011;22964;52.272;13.356;2023-02-27T06:20:28;6.97;;;2.78;;
37051;SDS011;22964;52.272;13.356;2023-02-27T06:22:53;8.07;;;2.88;;
37051;SDS011;22964;52.272;13.356;2023-02-27T06:25:19;7.25;;;3.08;;
37051;SDS011;22964;52.272;13.356;2023-02-27T06:27:46;6.35;;;2.78;;
37051;SDS011;22964;52.272;13.356;2023-02-27T06:30:12;8.93;;;2.47;;
37051;SDS011;22964;52.272;13.356;2023-02-27T06:32:38;5.75;;;2.47;;
37051;SDS011;22964;52.272;13.356;2023-02-27T06:35:04;6.88;;;2.30;;
37051;SDS011;22964;52.272;13.356;2023-02-27T06:37:31;6.63;;;2.30;;
37051;SDS011;22964;52.272;13.356;2023-02-27T06:39:57;6.40;;;2.50;;
37051;SDS011;22964;52.272;13.356;2023-02-27T06:42:22;6.25;;;2.28;;
37051;SDS011;22964;52.272;13.356;2023-02-27T06:44:48;5.57;;;2.25;;
37051;SDS011;22964;52.272;13.356;2023-02-27T06:47:14;6.13;;;2.72;;
37051;SDS011;22964;52.272;13.356;2023-02-27T06:49:40;4.53;;;2.45;;
37051;SDS011;22964;52.272;13.356;2023-02-27T06:52:05;4.63;;;2.17;;
37051;SDS011;22964;52.272;13.356;2023-02-27T06:54:31;3.60;;;1.90;;
37051;SDS011;22964;52.272;13.356;2023-02-27T06:56:58;4.47;;;2.17;;
37051;SDS011;22964;52.272;13.356;2023-02-27T06:59:23;3.90;;;1.92;;
37051;SDS011;22964;52.272;13.356;2023-02-27T07:01:49;4.93;;;2.17;;
37051;SDS011;22964;52.272;13.356;2023-02-27T07:04:15;4.15;;;2.20;;
37051;SDS011;22964;52.272;13.356;2023-02-27T07:06:41;4.07;;;2.28;;
37051;SDS011;22964;52.272;13.356;2023-02-27T07:09:07;7.68;;;2.15;;
37051;SDS011;22964;52.272;13.356;2023-02-27T07:11:33;5.97;;;2.45;;
37051;SDS011;22964;52.272;13.356;2023-02-27T07:13:59;6.28;;;2.80;;
37051;SDS011;22964;52.272;13.356;2023-02-27T07:16:25;7.35;;;3.50;;
37051;SDS011;22964;52.272;13.356;2023-02-27T07:18:50;12.98;;;6.22;;
37051;SDS011;22964;52.272;13.356;2023-02-27T07:21:16;29.95;;;19.77;;
37051;SDS011;22964;52.272;13.356;2023-02-27T07:23:42;15.77;;;10.77;;
37051;SDS011;22964;52.272;13.356;2023-02-27T07:26:07;31.88;;;18.40;;
37051;SDS011;22964;52.272;13.356;2023-02-27T07:28:33;11.77;;;6.75;;
37051;SDS011;22964;52.272;13.356;2023-02-27T07:30:59;6.78;;;3.75;;
37051;SDS011;22964;52.272;13.356;2023-02-27T07:33:25;7.38;;;2.50;;
37051;SDS011;22964;52.272;13.356;2023-02-27T07:35:51;5.32;;;2.63;;
37051;SDS011;22964;52.272;13.356;2023-02-27T07:38:17;5.85;;;2.67;;
37051;SDS011;22964;52.272;13.356;2023-02-27T07:40:46;3.85;;;2.00;;
37051;SDS011;22964;52.272;13.356;2023-02-27T07:43:12;3.80;;;2.08;;
37051;SDS011;22964;52.272;13.356;2023-02-27T07:45:38;5.22;;;2.10;;
37051;SDS011;22964;52.272;13.356;2023-02-27T07:48:04;3.92;;;2.08;;
37051;SDS011;22964;52.272;13.356;2023-02-27T07:50:30;4.95;;;2.10;;
37051;SDS011;22964;52.272;13.356;2023-02-27T07:52:56;3.60;;;2.00;;
37051;SDS011;22964;52.272;13.356;2023-02-27T07:55:22;5.68;;;2.08;;
37051;SDS011;22964;52.272;13.356;2023-02-27T07:57:47;3.90;;;2.15;;
37051;SDS011;22964;52.272;13.356;2023-02-27T08:00:13;5.20;;;2.38;;
37051;SDS011;22964;52.272;13.356;2023-02-27T08:02:39;4.85;;;2.03;;
37051;SDS011;22964;52.272;13.356;2023-02-27T08:05:05;4.10;;;2.03;;
37051;SDS011;22964;52.272;13.356;2023-02-27T08:07:31;7.40;;;2.20;;
37051;SDS011;22964;52.272;13.356;2023-02-27T08:09:57;4.75;;;2.70;;
37051;SDS011;22964;52.272;13.356;2023-02-27T08:12:23;10.70;;;5.43;;
37051;SDS011;22964;52.272;13.356;2023-02-27T08:14:48;7.45;;;4.43;;
37051;SDS011;22964;52.272;13.356;2023-02-27T08:17:14;5.70;;;3.00;;
37051;SDS011;22964;52.272;13.356;2023-02-27T08:19:40;5.85;;;2.60;;
37051;SDS011;22964;52.272;13.356;2023-02-27T08:22:06;6.55;;;4.00;;
37051;SDS011;22964;52.272;13.356;2023-02-27T08:24:31;8.88;;;3.58;;
37051;SDS011;22964;52.272;13.356;2023-02-27T08:26:57;4.38;;;2.55;;
37051;SDS011;22964;52.272;13.356;2023-02-27T08:29:23;4.25;;;2.30;;
37051;SDS011;22964;52.272;13.356;2023-02-27T08:31:49;5.10;;;2.90;;
37051;SDS011;22964;52.272;13.356;2023-02-27T08:34:14;4.72;;;2.42;;
37051;SDS011;22964;52.272;13.356;2023-02-27T08:36:40;4.88;;;2.60;;
37051;SDS011;22964;52.272;13.356;2023-02-27T08:39:07;6.00;;;2.63;;
37051;SDS011;22964;52.272;13.356;2023-02-27T08:41:33;4.38;;;2.53;;
37051;SDS011;22964;52.272;13.356;2023-02-27T08:43:59;5.13;;;2.40;;
37051;SDS011;22964;52.272;13.356;2023-02-27T08:46:25;5.25;;;2.50;;
37051;SDS011;22964;52.272;13.356;2023-02-27T08:48:50;6.30;;;2.67;;
37051;SDS011;22964;52.272;13.356;2023-02-27T08:51:16;5.10;;;2.35;;
37051;SDS011;22964;52.272;13.356;2023-02-27T08:53:42;22.65;;;7.90;;
37051;SDS011;22964;52.272;13.356;2023-02-27T08:56:08;10.75;;;3.97;;
37051;SDS011;22964;52.272;13.356;2023-02-27T08:58:34;6.78;;;3.42;;
37051;SDS011;22964;52.272;13.356;2023-02-27T09:01:00;7.00;;;3.38;;
37051;SDS011;22964;52.272;13.356;2023-02-27T09:03:26;5.50;;;2.78;;
37051;SDS011;22964;52.272;13.356;2023-02-27T09:05:53;6.65;;;3.08;;
37051;SDS011;22964;52.272;13.356;2023-02-27T09:08:20;5.30;;;2.90;;
37051;SDS011;22964;52.272;13.356;2023-02-27T09:10:46;5.53;;;2.90;;
37051;SDS011;22964;52.272;13.356;2023-02-27T09:13:12;6.55;;;2.40;;
37051;SDS011;22964;52.272;13.356;2023-02-27T09:15:38;6.05;;;2.60;;
37051;SDS011;22964;52.272;13.356;2023-02-27T09:18:03;7.50;;;3.05;;
37051;SDS011;22964;52.272;13.356;2023-02-27T09:20:34;5.80;;;2.70;;
37051;SDS011;22964;52.272;13.356;2023-02-27T09:23:00;6.50;;;2.50;;
37051;SDS011;22964;52.272;13.356;2023-02-27T09:25:27;7.75;;;2.58;;
37051;SDS011;22964;52.272;13.356;2023-02-27T09:27:54;10.43;;;3.20;;
37051;SDS011;22964;52.272;13.356;2023-02-27T09:30:20;5.68;;;3.00;;
37051;SDS011;22964;52.272;13.356;2023-02-27T09:32:46;5.03;;;3.00;;
37051;SDS011;22964;52.272;13.356;2023-02-27T09:35:11;5.72;;;2.83;;
37051;SDS011;22964;52.272;13.356;2023-02-27T09:37:40;17.88;;;3.15;;
37051;SDS011;22964;52.272;13.356;2023-02-27T09:40:06;7.10;;;2.78;;
37051;SDS011;22964;52.272;13.356;2023-02-27T09:42:37;13.70;;;5.20;;
37051;SDS011;22964;52.272;13.356;2023-02-27T09:45:11;14.68;;;5.85;;
37051;SDS011;22964;52.272;13.356;2023-02-27T09:47:49;7.70;;;3.28;;
37051;SDS011;22964;52.272;13.356;2023-02-27T09:50:24;22.88;;;7.63;;
37051;SDS011;22964;52.272;13.356;2023-02-27T09:53:03;11.25;;;3.25;;
37051;SDS011;22964;52.272;13.356;2023-02-27T09:55:32;7.78;;;3.50;;
37051;SDS011;22964;52.272;13.356;2023-02-27T10:06:17;7.18;;;2.80;;
37051;SDS011;22964;52.272;13.356;2023-02-27T10:11:51;9.07;;;2.70;;
37051;SDS011;22964;52.272;13.356;2023-02-27T10:17:00;5.28;;;2.53;;
37051;SDS011;22964;52.272;13.356;2023-02-27T10:19:30;5.90;;;2.60;;
37051;SDS011;22964;52.272;13.356;2023-02-27T10:21:59;5.85;;;2.70;;
37051;SDS011;22964;52.272;13.356;2023-02-27T10:24:30;4.55;;;2.17;;
37051;SDS011;22964;52.272;13.356;2023-02-27T10:27:18;7.73;;;2.33;;
37051;SDS011;22964;52.272;13.356;2023-02-27T10:29:45;4.10;;;2.05;;
37051;SDS011;22964;52.272;13.356;2023-02-27T10:32:13;5.30;;;2.30;;
37051;SDS011;22964;52.272;13.356;2023-02-27T10:34:54;5.78;;;2.25;;
37051;SDS011;22964;52.272;13.356;2023-02-27T10:37:30;4.32;;;1.73;;
37051;SDS011;22964;52.272;13.356;2023-02-27T10:40:02;5.25;;;1.90;;
37051;SDS011;22964;52.272;13.356;2023-02-27T10:42:31;3.25;;;1.80;;
37051;SDS011;22964;52.272;13.356;2023-02-27T10:45:00;4.20;;;1.77;;
37051;SDS011;22964;52.272;13.356;2023-02-27T10:47:28;4.68;;;1.92;;
37051;SDS011;22964;52.272;13.356;2023-02-27T10:49:55;6.72;;;1.92;;
37051;SDS011;22964;52.272;13.356;2023-02-27T10:52:21;3.95;;;1.88;;
37051;SDS011;22964;52.272;13.356;2023-02-27T10:54:46;9.55;;;2.10;;
37051;SDS011;22964;52.272;13.356;2023-02-27T10:59:56;3.30;;;1.58;;
37051;SDS011;22964;52.272;13.356;2023-02-27T11:02:33;8.43;;;1.85;;
37051;SDS011;22964;52.272;13.356;2023-02-27T11:05:27;6.97;;;1.70;;
37051;SDS011;22964;52.272;13.356;2023-02-27T11:07:55;3.72;;;1.23;;
37051;SDS011;22964;52.272;13.356;2023-02-27T11:10:35;2.75;;;1.30;;
37051;SDS011;22964;52.272;13.356;2023-02-27T11:15:30;2.35;;;1.20;;
37051;SDS011;22964;52.272;13.356;2023-02-27T11:20:49;4.85;;;1.15;;
37051;SDS011;22964;52.272;13.356;2023-02-27T11:25:44;1.88;;;0.90;;
37051;SDS011;22964;52.272;13.356;2023-02-27T11:28:12;3.58;;;1.00;;
37051;SDS011;22964;52.272;13.356;2023-02-27T11:30:37;4.18;;;1.20;;
37051;SDS011;22964;52.272;13.356;2023-02-27T11:33:09;2.05;;;1.00;;
37051;SDS011;22964;52.272;13.356;2023-02-27T11:35:43;2.65;;;0.82;;
37051;SDS011;22964;52.272;13.356;2023-02-27T11:38:16;4.75;;;0.75;;
37051;SDS011;22964;52.272;13.356;2023-02-27T11:40:50;2.05;;;0.70;;
37051;SDS011;22964;52.272;13.356;2023-02-27T11:43:25;1.65;;;1.05;;
37051;SDS011;22964;52.272;13.356;2023-02-27T11:45:59;1.30;;;0.70;;
37051;SDS011;22964;52.272;13.356;2023-02-27T11:48:28;1.08;;;0.70;;
37051;SDS011;22964;52.272;13.356;2023-02-27T11:56:40;0.88;;;0.50;;
37051;SDS011;22964;52.272;13.356;2023-02-27T11:59:34;0.88;;;0.57;;
37051;SDS011;22964;52.272;13.356;2023-02-27T12:05:05;1.70;;;0.73;;
37051;SDS011;22964;52.272;13.356;2023-02-27T12:07:43;2.67;;;0.70;;
37051;SDS011;22964;52.272;13.356;2023-02-27T12:10:21;1.48;;;0.80;;
37051;SDS011;22964;52.272;13.356;2023-02-27T12:20:53;2.45;;;0.88;;
37051;SDS011;22964;52.272;13.356;2023-02-27T12:23:42;1.83;;;0.70;;
37051;SDS011;22964;52.272;13.356;2023-02-27T12:31:41;0.93;;;0.60;;
37051;SDS011;22964;52.272;13.356;2023-02-27T12:37:03;1.38;;;0.60;;
37051;SDS011;22964;52.272;13.356;2023-02-27T12:39:38;2.37;;;0.80;;
37051;SDS011;22964;52.272;13.356;2023-02-27T12:50:01;0.70;;;0.53;;
37051;SDS011;22964;52.272;13.356;2023-02-27T12:52:34;2.15;;;0.70;;
37051;SDS011;22964;52.272;13.356;2023-02-27T12:55:30;1.40;;;0.73;;
37051;SDS011;22964;52.272;13.356;2023-02-27T13:00:37;0.57;;;0.50;;
37051;SDS011;22964;52.272;13.356;2023-02-27T13:03:19;1.55;;;0.50;;
37051;SDS011;22964;52.272;13.356;2023-02-27T13:06:07;0.90;;;0.60;;
37051;SDS011;22964;52.272;13.356;2023-02-27T13:08:46;0.43;;;0.43;;
37051;SDS011;22964;52.272;13.356;2023-02-27T13:11:18;0.88;;;0.40;;
37051;SDS011;22964;52.272;13.356;2023-02-27T13:14:06;0.70;;;0.40;;
37051;SDS011;22964;52.272;13.356;2023-02-27T13:16:49;0.77;;;0.40;;
37051;SDS011;22964;52.272;13.356;2023-02-27T13:19:25;0.85;;;0.50;;
37051;SDS011;22964;52.272;13.356;2023-02-27T13:22:00;1.05;;;0.60;;
37051;SDS011;22964;52.272;13.356;2023-02-27T13:24:42;5.10;;;0.57;;
37051;SDS011;22964;52.272;13.356;2023-02-27T13:27:18;1.20;;;0.60;;
37051;SDS011;22964;52.272;13.356;2023-02-27T13:29:47;1.33;;;0.60;;
37051;SDS011;22964;52.272;13.356;2023-02-27T13:35:48;1.25;;;0.60;;
37051;SDS011;22964;52.272;13.356;2023-02-27T13:38:00;1.60;;;0.70;;
37051;SDS011;22964;52.272;13.356;2023-02-27T13:40:38;0.88;;;0.60;;
37051;SDS011;22964;52.272;13.356;2023-02-27T13:51:40;1.75;;;0.60;;
37051;SDS011;22964;52.272;13.356;2023-02-27T13:56:44;0.65;;;0.60;;
37051;SDS011;22964;52.272;13.356;2023-02-27T14:07:10;1.13;;;0.60;;
37051;SDS011;22964;52.272;13.356;2023-02-27T14:09:46;1.25;;;0.57;;
37051;SDS011;22964;52.272;13.356;2023-02-27T14:12:37;2.40;;;0.65;;
37051;SDS011;22964;52.272;13.356;2023-02-27T14:31:27;3.33;;;0.60;;
37051;SDS011;22964;52.272;13.356;2023-02-27T14:33:59;1.02;;;0.52;;
37051;SDS011;22964;52.272;13.356;2023-02-27T14:36:31;0.80;;;0.57;;
37051;SDS011;22964;52.272;13.356;2023-02-27T14:39:17;1.27;;;0.55;;
37051;SDS011;22964;52.272;13.356;2023-02-27T14:44:23;0.90;;;0.68;;
37051;SDS011;22964;52.272;13.356;2023-02-27T14:46:52;1.27;;;0.60;;
37051;SDS011;22964;52.272;13.356;2023-02-27T14:49:33;1.63;;;0.80;;
37051;SDS011;22964;52.272;13.356;2023-02-27T14:52:11;1.23;;;0.50;;
37051;SDS011;22964;52.272;13.356;2023-02-27T14:54:47;4.88;;;0.73;;
37051;SDS011;22964;52.272;13.356;2023-02-27T14:57:21;0.63;;;0.40;;
37051;SDS011;22964;52.272;13.356;2023-02-27T14:59:52;1.15;;;0.60;;
37051;SDS011;22964;52.272;13.356;2023-02-27T15:02:20;0.90;;;0.60;;
37051;SDS011;22964;52.272;13.356;2023-02-27T15:04:51;1.65;;;0.57;;
37051;SDS011;22964;52.272;13.356;2023-02-27T15:07:40;2.65;;;0.63;;
37051;SDS011;22964;52.272;13.356;2023-02-27T15:10:16;1.85;;;0.80;;
37051;SDS011;22964;52.272;13.356;2023-02-27T15:12:47;0.98;;;0.63;;
37051;SDS011;22964;52.272;13.356;2023-02-27T15:15:16;2.75;;;0.77;;
37051;SDS011;22964;52.272;13.356;2023-02-27T15:17:43;1.58;;;0.80;;
37051;SDS011;22964;52.272;13.356;2023-02-27T15:22:54;2.08;;;0.73;;
37051;SDS011;22964;52.272;13.356;2023-02-27T15:25:28;0.90;;;0.60;;
37051;SDS011;22964;52.272;13.356;2023-02-27T15:28:15;1.70;;;0.75;;
37051;SDS011;22964;52.272;13.356;2023-02-27T15:30:46;2.10;;;1.00;;
37051;SDS011;22964;52.272;13.356;2023-02-27T15:33:14;1.60;;;0.80;;
37051;SDS011;22964;52.272;13.356;2023-02-27T15:35:41;2.45;;;0.90;;
37051;SDS011;22964;52.272;13.356;2023-02-27T15:38:22;1.55;;;0.90;;
37051;SDS011;22964;52.272;13.356;2023-02-27T15:40:50;1.58;;;0.90;;
37051;SDS011;22964;52.272;13.356;2023-02-27T15:43:17;1.67;;;0.90;;
37051;SDS011;22964;52.272;13.356;2023-02-27T15:45:45;1.90;;;0.80;;
37051;SDS011;22964;52.272;13.356;2023-02-27T15:48:14;1.85;;;1.00;;
37051;SDS011;22964;52.272;13.356;2023-02-27T15:50:41;1.27;;;1.00;;
37051;SDS011;22964;52.272;13.356;2023-02-27T15:53:12;1.90;;;1.00;;
37051;SDS011;22964;52.272;13.356;2023-02-27T15:55:56;1.98;;;0.90;;
37051;SDS011;22964;52.272;13.356;2023-02-27T15:58:28;1.60;;;0.90;;
37051;SDS011;22964;52.272;13.356;2023-02-27T16:03:31;1.63;;;1.02;;
37051;SDS011;22964;52.272;13.356;2023-02-27T16:06:00;1.83;;;0.90;;
37051;SDS011;22964;52.272;13.356;2023-02-27T16:08:28;1.77;;;1.00;;
37051;SDS011;22964;52.272;13.356;2023-02-27T16:10:55;1.65;;;1.08;;
37051;SDS011;22964;52.272;13.356;2023-02-27T16:16:35;1.27;;;0.95;;
37051;SDS011;22964;52.272;13.356;2023-02-27T16:19:24;1.55;;;0.90;;
37051;SDS011;22964;52.272;13.356;2023-02-27T16:24:31;1.45;;;0.90;;
37051;SDS011;22964;52.272;13.356;2023-02-27T16:26:57;1.80;;;1.00;;
37051;SDS011;22964;52.272;13.356;2023-02-27T16:29:28;1.10;;;0.70;;
37051;SDS011;22964;52.272;13.356;2023-02-27T16:31:58;1.98;;;1.00;;
37051;SDS011;22964;52.272;13.356;2023-02-27T16:37:03;4.43;;;1.05;;
37051;SDS011;22964;52.272;13.356;2023-02-27T16:39:31;3.90;;;0.90;;
37051;SDS011;22964;52.272;13.356;2023-02-27T16:41:58;1.98;;;0.90;;
37051;SDS011;22964;52.272;13.356;2023-02-27T16:44:25;1.85;;;0.90;;
37051;SDS011;22964;52.272;13.356;2023-02-27T16:46:51;1.27;;;0.80;;
37051;SDS011;22964;52.272;13.356;2023-02-27T16:49:22;2.00;;;1.00;;
37051;SDS011;22964;52.272;13.356;2023-02-27T16:51:52;2.13;;;1.00;;
37051;SDS011;22964;52.272;13.356;2023-02-27T16:54:19;1.92;;;0.70;;
37051;SDS011;22964;52.272;13.356;2023-02-27T16:56:45;2.08;;;0.80;;
37051;SDS011;22964;52.272;13.356;2023-02-27T17:01:55;1.48;;;0.80;;
37051;SDS011;22964;52.272;13.356;2023-02-27T17:04:22;2.47;;;0.80;;
37051;SDS011;22964;52.272;13.356;2023-02-27T17:06:49;1.63;;;0.80;;
37051;SDS011;22964;52.272;13.356;2023-02-27T17:09:15;2.22;;;0.80;;
37051;SDS011;22964;52.272;13.356;2023-02-27T17:11:40;1.17;;;0.70;;
37051;SDS011;22964;52.272;13.356;2023-02-27T17:14:06;1.60;;;0.80;;
37051;SDS011;22964;52.272;13.356;2023-02-27T17:16:32;6.28;;;0.85;;
37051;SDS011;22964;52.272;13.356;2023-02-27T17:18:57;1.75;;;1.10;;
37051;SDS011;22964;52.272;13.356;2023-02-27T17:21:23;3.40;;;1.00;;
37051;SDS011;22964;52.272;13.356;2023-02-27T17:23:49;3.03;;;1.10;;
37051;SDS011;22964;52.272;13.356;2023-02-27T17:26:15;2.03;;;1.00;;
37051;SDS011;22964;52.272;13.356;2023-02-27T17:28:40;4.22;;;1.10;;
37051;SDS011;22964;52.272;13.356;2023-02-27T17:31:12;2.58;;;1.30;;
37051;SDS011;22964;52.272;13.356;2023-02-27T17:33:39;2.10;;;1.35;;
37051;SDS011;22964;52.272;13.356;2023-02-27T17:36:06;2.30;;;1.30;;
37051;SDS011;22964;52.272;13.356;2023-02-27T17:38:37;8.32;;;1.50;;
37051;SDS011;22964;52.272;13.356;2023-02-27T17:41:06;3.15;;;1.42;;